Ammon, Idaho
Current Conditions -  °F | °C
As of 10:53 AM on Tuesday 21 Oct 2014 (Local Time) from KIDA Reporting Station
Broken Clouds Broken Clouds  
Wind Chill: 38°   Ceiling: 2300
Heat Index: 47°   Visibility: 10mi
Dew Point: 37°   Wind: 28mph
Humidity: 68%   Direction: 200°SSW
Pressure: 29.99"   Gusts: 36mph
Location:  43.4284°N, 111.925°W
Report Text: KIDA 211653Z 20024G31KT 10SM BKN023 BKN050 08/03 A2999 RMK AO2 PK WND 20032/1603 SLP150 T00830028
Loading
Personal Weather Stations






























Interactive Weather Map
Tropical Storm Tracking
New forecast layout! Learn more

10-Day Weather Forecast

Advertisements
Track Severe Weather on mobile